Time;durP1;ratioP1;P1;durP2;ratioP2;P2;SDS_P1;SDS_P2;PMS_P1;PMS_P2;Temp;Humidity;BMP_temperature;BMP_pressure;BME280_temperature;BME280_humidity;BME280_pressure;Samples;Min_cycle;Max_cycle;Signal;HPM_P1;HPM_P2
2023/04/17 00:01:04;;;;;;;29.90;20.02;;;;;;;7.95;100.00;102679.59;5004281;28;20424;-77
2023/04/17 00:03:32;;;;;;;32.80;20.88;;;;;;;7.94;100.00;102674.25;4938341;28;20525;-76
2023/04/17 00:05:59;;;;;;;28.38;19.25;;;;;;;7.93;100.00;102668.13;4982034;28;20053;-77
2023/04/17 00:08:27;;;;;;;34.22;19.25;;;;;;;7.93;100.00;102670.75;4980345;28;20038;-76
2023/04/17 00:10:54;;;;;;;37.92;21.48;;;;;;;7.94;100.00;102676.88;4991882;28;20038;-76
2023/04/17 00:13:34;;;;;;;34.35;20.48;;;;;;;7.93;100.00;102678.63;4993936;28;20060;-76
2023/04/17 00:16:01;;;;;;;37.95;21.95;;;;;;;7.94;100.00;102674.25;4996495;28;20058;-76
2023/04/17 00:18:29;;;;;;;35.10;20.63;;;;;;;7.94;100.00;102669.94;4946532;28;20679;-76
2023/04/17 00:20:56;;;;;;;38.38;20.17;;;;;;;7.93;100.00;102673.38;4999411;28;20038;-76
2023/04/17 00:23:25;;;;;;;36.13;20.48;;;;;;;7.94;100.00;102663.75;4963819;28;20053;-76
2023/04/17 00:25:52;;;;;;;37.38;21.45;;;;;;;7.94;100.00;102674.25;4988989;28;20054;-76
2023/04/17 00:28:19;;;;;;;36.45;20.10;;;;;;;7.93;100.00;102677.75;5001940;28;20037;-76
2023/04/17 00:30:46;;;;;;;34.17;21.13;;;;;;;7.94;100.00;102672.56;4983045;28;20061;-76
2023/04/17 00:33:14;;;;;;;38.50;20.00;;;;;;;7.94;100.00;102675.19;4957869;28;20505;-76
2023/04/17 00:35:41;;;;;;;37.67;21.45;;;;;;;7.95;100.00;102670.81;4969789;28;20064;-76
2023/04/17 00:38:09;;;;;;;33.60;21.10;;;;;;;7.94;100.00;102669.94;4983696;28;20057;-76
2023/04/17 00:40:36;;;;;;;40.65;20.58;;;;;;;7.93;100.00;102668.13;4981168;28;20060;-76
2023/04/17 00:43:05;;;;;;;37.40;20.58;;;;;;;7.94;100.00;102674.25;4971031;28;20049;-76
2023/04/17 00:45:35;;;;;;;34.95;19.95;;;;;;;7.96;100.00;102677.88;4981994;28;20545;-76
2023/04/17 00:48:05;;;;;;;30.48;20.30;;;;;;;7.95;100.00;102676.06;4997774;28;20501;-76
2023/04/17 00:50:33;;;;;;;;;;;;;;;7.94;100.00;102669.00;4928306;28;20042;-76
2023/04/17 00:53:00;;;;;;;35.63;20.92;;;;;;;7.93;100.00;102675.13;4984063;28;20389;-76
2023/04/17 00:55:30;;;;;;;35.13;20.83;;;;;;;7.91;100.00;102674.16;4996316;28;20060;-76
2023/04/17 00:57:57;;;;;;;31.75;21.40;;;;;;;7.92;100.00;102670.69;4960332;28;20634;-77
2023/04/17 01:00:25;;;;;;;37.50;22.63;;;;;;;7.92;100.00;102679.47;4999912;28;20045;-76
2023/04/17 01:02:55;;;;;;;37.63;21.75;;;;;;;7.93;100.00;102672.50;4988413;28;20050;-76
2023/04/17 01:05:24;;;;;;;38.30;22.23;;;;;;;7.92;100.00;102678.56;4923361;28;20060;-76
2023/04/17 01:07:53;;;;;;;34.63;21.95;;;;;;;7.93;100.00;102683.88;5005789;28;20054;-76
2023/04/17 01:10:20;;;;;;;40.83;23.23;;;;;;;7.92;100.00;102674.22;4974863;28;20513;-76
2023/04/17 01:13:00;;;;;;;38.67;22.90;;;;;;;7.91;100.00;102675.03;4965296;28;20424;-76
2023/04/17 01:15:28;;;;;;;39.17;23.27;;;;;;;7.91;100.00;102684.66;4991116;28;20041;-76
2023/04/17 01:17:56;;;;;;;35.78;23.45;;;;;;;7.91;100.00;102679.41;4990539;28;20057;-76
2023/04/17 01:20:24;;;;;;;35.53;23.13;;;;;;;7.90;100.00;102675.88;4941725;28;20034;-76
2023/04/17 01:22:51;;;;;;;39.78;24.50;;;;;;;7.89;100.00;102681.94;4974265;28;20515;-76
2023/04/17 01:25:19;;;;;;;34.13;22.88;;;;;;;7.90;100.00;102686.38;5002658;28;20053;-76
2023/04/17 01:27:46;;;;;;;37.83;22.70;;;;;;;7.90;100.00;102688.09;4970041;28;20524;-76
2023/04/17 01:30:13;;;;;;;40.80;23.50;;;;;;;7.88;100.00;102685.44;5000848;28;20034;-76
2023/04/17 01:32:56;;;;;;;41.03;24.80;;;;;;;7.87;100.00;102687.97;4976617;28;20054;-76
2023/04/17 01:35:24;;;;;;;41.35;24.48;;;;;;;7.86;100.00;102688.78;4935692;28;20491;-77
2023/04/17 01:37:51;;;;;;;49.08;25.63;;;;;;;7.83;100.00;102691.31;4985412;28;20560;-77
2023/04/17 01:40:18;;;;;;;41.53;25.05;;;;;;;7.81;100.00;102696.47;4993617;28;20043;-75
2023/04/17 01:42:46;;;;;;;44.40;25.15;;;;;;;7.82;100.00;102690.38;4976632;28;20505;-77
2023/04/17 01:45:14;;;;;;;42.90;24.75;;;;;;;7.79;100.00;102688.53;4970405;28;20138;-77
2023/04/17 01:47:41;;;;;;;43.15;24.85;;;;;;;7.79;100.00;102682.41;5003470;28;20057;-77
2023/04/17 01:50:09;;;;;;;42.72;24.85;;;;;;;7.79;100.00;102685.91;4990320;28;20093;-77
2023/04/17 01:52:36;;;;;;;44.42;24.63;;;;;;;7.80;100.00;102686.78;4923946;28;20049;-77
2023/04/17 01:55:04;;;;;;;40.42;22.70;;;;;;;7.78;100.00;102680.59;4977169;28;20057;-77
2023/04/17 01:57:32;;;;;;;39.83;23.98;;;;;;;7.78;100.00;102689.34;4980519;28;20056;-77
2023/04/17 01:59:59;;;;;;;40.63;22.33;;;;;;;7.76;100.00;102691.00;4957772;28;20070;-77
2023/04/17 02:02:26;;;;;;;45.60;24.48;;;;;;;7.76;100.00;102679.63;4981779;28;20468;-77
2023/04/17 02:04:54;;;;;;;45.67;24.90;;;;;;;7.79;100.00;102698.16;4981848;28;20049;-77
2023/04/17 02:07:21;;;;;;;40.70;23.73;;;;;;;7.79;100.00;102691.16;4959720;28;20507;-77
2023/04/17 02:09:49;;;;;;;40.58;23.02;;;;;;;7.79;100.00;102695.53;4980118;28;20046;-77
2023/04/17 02:12:16;;;;;;;44.97;23.95;;;;;;;7.78;100.00;102694.59;4983926;28;20030;-77
2023/04/17 02:14:43;;;;;;;41.80;22.13;;;;;;;7.78;100.00;102693.72;4976946;28;20117;-76
2023/04/17 02:17:10;;;;;;;55.38;26.65;;;;;;;7.78;100.00;102693.72;4989017;28;20064;-76
2023/04/17 02:19:37;;;;;;;52.95;26.35;;;;;;;7.78;100.00;102689.34;4991856;28;20746;-77
2023/04/17 02:22:05;;;;;;;53.95;26.88;;;;;;;7.78;100.00;102699.84;5006031;28;20401;-77
2023/04/17 02:24:32;;;;;;;52.90;25.88;;;;;;;7.79;100.00;102703.41;4952276;28;20037;-77
2023/04/17 02:27:00;;;;;;;62.67;29.05;;;;;;;7.76;100.00;102695.38;4983921;28;20061;-77
2023/04/17 02:29:30;;;;;;;;;;;;;;;7.73;100.00;102698.78;4970715;28;20504;-77
2023/04/17 02:31:57;;;;;;;71.13;29.27;;;;;;;7.71;100.00;102694.25;4985204;28;19925;-77
2023/04/17 02:34:25;;;;;;;59.13;26.83;;;;;;;7.70;100.00;102693.38;5003577;28;20417;-76
2023/04/17 02:36:54;;;;;;;58.65;26.65;;;;;;;7.69;100.00;102695.91;5005414;28;20054;-77
2023/04/17 02:39:23;;;;;;;63.53;27.23;;;;;;;7.68;100.00;102702.91;4941450;28;20505;-77
2023/04/17 02:41:50;;;;;;;50.95;24.92;;;;;;;7.68;100.00;102695.03;4989737;28;20054;-77
2023/04/17 02:44:17;;;;;;;52.00;24.88;;;;;;;7.67;100.00;102695.84;4968461;28;20054;-77
2023/04/17 02:46:45;;;;;;;57.22;27.25;;;;;;;7.67;100.00;102697.59;4957742;28;20892;-77
2023/04/17 02:49:12;;;;;;;55.00;26.40;;;;;;;7.61;100.00;102701.72;4987890;28;20065;-77
2023/04/17 02:51:40;;;;;;;53.13;25.73;;;;;;;7.64;100.00;102700.06;4954909;28;20169;-77
2023/04/17 02:54:07;;;;;;;56.45;26.55;;;;;;;7.63;100.00;102703.53;4942753;28;20042;-76
2023/04/17 02:56:35;;;;;;;65.43;28.73;;;;;;;7.61;100.00;102703.44;4983484;28;20568;-76
2023/04/17 02:59:02;;;;;;;71.15;27.38;;;;;;;7.62;100.00;102705.25;4970251;28;20069;-76
2023/04/17 03:01:29;;;;;;;75.65;30.35;;;;;;;7.61;100.00;102696.47;4950898;28;20064;-75
2023/04/17 03:03:57;;;;;;;56.80;25.17;;;;;;;7.61;100.00;102695.56;4988058;28;20057;-77
2023/04/17 03:06:25;;;;;;;54.65;26.35;;;;;;;7.61;100.00;102698.19;5003535;28;20054;-76
2023/04/17 03:08:52;;;;;;;51.35;25.63;;;;;;;7.60;100.00;102699.94;5005240;28;20053;-76
2023/04/17 03:11:20;;;;;;;55.22;27.67;;;;;;;7.61;100.00;102701.72;4946534;28;20757;-76
2023/04/17 03:13:48;;;;;;;49.75;24.65;;;;;;;7.61;100.00;102696.47;4984684;28;20054;-76
2023/04/17 03:16:15;;;;;;;56.38;27.02;;;;;;;7.62;100.00;102705.25;4997519;28;20037;-76
2023/04/17 03:18:45;;;;;;;57.05;25.83;;;;;;;7.61;100.00;102704.34;4957741;28;20130;-77
2023/04/17 03:21:12;;;;;;;49.55;25.92;;;;;;;7.61;100.00;102704.34;4997836;28;20046;-76
2023/04/17 03:23:40;;;;;;;47.13;26.73;;;;;;;7.60;100.00;102710.44;4993725;28;20500;-76
2023/04/17 03:26:08;;;;;;;47.88;26.08;;;;;;;7.61;100.00;102706.06;4939306;28;20038;-76
2023/04/17 03:28:36;;;;;;;50.03;26.63;;;;;;;7.60;100.00;102710.44;4986017;28;20050;-76
2023/04/17 03:31:05;;;;;;;52.65;27.50;;;;;;;7.59;100.00;102702.50;4978524;28;20049;-76
2023/04/17 03:33:33;;;;;;;58.15;28.67;;;;;;;7.57;100.00;102707.66;4973543;28;20057;-76
2023/04/17 03:36:01;;;;;;;44.33;26.08;;;;;;;7.58;100.00;102708.56;4988541;28;20057;-76
2023/04/17 03:38:28;;;;;;;54.97;26.55;;;;;;;7.57;100.00;102709.41;4966919;28;20974;-76
2023/04/17 03:40:58;;;;;;;49.88;27.75;;;;;;;7.59;100.00;102712.97;4987387;28;20054;-76
2023/04/17 03:43:25;;;;;;;51.13;26.60;;;;;;;7.60;100.00;102714.78;4924917;28;20051;-75
2023/04/17 03:45:53;;;;;;;49.88;28.02;;;;;;;7.57;100.00;102707.66;4956291;28;20046;-76
2023/04/17 03:48:21;;;;;;;47.38;26.27;;;;;;;7.57;100.00;102719.88;4982466;28;20058;-76
2023/04/17 03:50:51;;;;;;;41.28;25.10;;;;;;;7.57;100.00;102718.16;4975988;28;20057;-76
2023/04/17 03:53:19;;;;;;;42.78;24.60;;;;;;;7.56;100.00;102718.06;4986000;28;20057;-76
2023/04/17 03:55:48;;;;;;;40.28;25.13;;;;;;;7.56;100.00;102723.31;5003291;28;20060;-76
2023/04/17 03:58:24;;;;;;;34.92;21.83;;;;;;;7.55;100.00;102721.56;4931807;28;20054;-76
2023/04/17 04:00:57;;;;;;;34.58;22.23;;;;;;;7.56;100.00;102723.31;4980694;28;20054;-76
2023/04/17 04:03:29;;;;;;;38.60;21.73;;;;;;;7.55;100.00;102725.06;4966488;28;20042;-76
2023/04/17 04:05:58;;;;;;;32.63;21.52;;;;;;;7.56;100.00;102725.94;4971888;28;20054;-76
2023/04/17 04:08:25;;;;;;;32.97;20.55;;;;;;;7.54;100.00;102725.91;4956643;28;20053;-76
2023/04/17 04:10:54;;;;;;;32.05;21.15;;;;;;;7.53;100.00;102724.09;4975863;28;20045;-76
2023/04/17 04:13:30;;;;;;;32.85;21.58;;;;;;;7.54;100.00;102732.84;4915623;28;20062;-76
2023/04/17 04:16:00;;;;;;;29.53;20.47;;;;;;;7.53;100.00;102733.69;4995705;28;20421;-76
2023/04/17 04:18:29;;;;;;;32.13;21.50;;;;;;;7.51;100.00;102733.63;4965823;28;20304;-76
2023/04/17 04:20:57;;;;;;;35.83;21.98;;;;;;;7.51;100.00;102730.13;4963513;28;20042;-76
2023/04/17 04:23:29;;;;;;;30.50;22.42;;;;;;;7.51;100.00;102741.50;4963699;28;20056;-76
2023/04/17 04:26:00;;;;;;;33.35;22.58;;;;;;;7.51;100.00;102733.63;4983755;28;20065;-77
2023/04/17 04:28:36;;;;;;;36.20;23.15;;;;;;;7.49;100.00;102737.91;4972810;28;20052;-76
2023/04/17 04:31:07;;;;;;;32.90;21.48;;;;;;;7.51;100.00;102737.97;4953818;28;20850;-76
2023/04/17 04:33:39;;;;;;;28.98;20.85;;;;;;;7.50;100.00;102738.78;4981125;28;20956;-76
2023/04/17 04:36:06;;;;;;;28.27;20.83;;;;;;;7.48;100.00;102733.47;4966994;28;20062;-75
2023/04/17 04:38:34;;;;;;;28.00;20.20;;;;;;;7.49;100.00;102740.53;4971816;28;20069;-76
2023/04/17 04:41:16;;;;;;;28.60;19.35;;;;;;;7.49;100.00;102737.91;4965396;28;20062;-76
2023/04/17 04:43:43;;;;;;;25.23;17.35;;;;;;;7.51;100.00;102740.59;4976043;28;20045;-77
2023/04/17 04:46:11;;;;;;;23.63;16.55;;;;;;;7.51;100.00;102740.59;4950910;28;20061;-76
2023/04/17 04:48:43;;;;;;;18.92;14.73;;;;;;;7.51;100.00;102736.25;4985507;28;20133;-77
2023/04/17 04:51:11;;;;;;;18.98;13.98;;;;;;;7.53;100.00;102739.84;4976355;28;20046;-75
2023/04/17 04:53:39;;;;;;;22.45;14.10;;;;;;;7.55;100.00;102742.53;4981796;28;20057;-76
2023/04/17 04:56:07;;;;;;;19.95;14.38;;;;;;;7.55;100.00;102751.28;4976298;28;20987;-76
2023/04/17 04:58:35;;;;;;;18.98;14.05;;;;;;;7.59;100.00;102744.47;4984417;28;20050;-77
2023/04/17 05:01:04;;;;;;;16.98;12.75;;;;;;;7.62;100.00;102747.25;4939649;28;20374;-77
2023/04/17 05:03:40;;;;;;;17.23;14.77;;;;;;;7.63;100.00;102753.38;4978090;28;20057;-77
2023/04/17 05:06:10;;;;;;;21.67;15.95;;;;;;;7.63;100.00;102749.03;4981743;28;20069;-77
2023/04/17 05:08:43;;;;;;;20.70;14.95;;;;;;;7.65;100.00;102757.84;4968190;28;20058;-76
2023/04/17 05:11:14;;;;;;;19.92;16.88;;;;;;;7.68;100.00;102765.00;4957708;28;20054;-75
2023/04/17 05:13:42;;;;;;;20.80;15.98;;;;;;;7.69;100.00;102757.16;4982113;28;20064;-77
2023/04/17 05:16:17;;;;;;;21.77;16.17;;;;;;;7.73;100.00;102760.81;4934398;28;20072;-77
2023/04/17 05:18:46;;;;;;;19.42;15.52;;;;;;;7.74;100.00;102765.28;4973903;28;20058;-79
2023/04/17 05:21:18;;;;;;;18.42;13.98;;;;;;;7.77;100.00;102773.28;4962629;28;20061;-77
2023/04/17 05:23:48;;;;;;;20.50;15.63;;;;;;;7.79;100.00;102774.25;4972722;28;20049;-78
2023/04/17 05:26:15;;;;;;;22.60;14.90;;;;;;;7.81;100.00;102776.09;4990632;28;20499;-77
2023/04/17 05:28:43;;;;;;;17.48;13.95;;;;;;;7.84;100.00;102779.69;4971305;28;20042;-77
2023/04/17 05:31:14;;;;;;;24.10;14.73;;;;;;;7.85;100.00;102782.41;4941869;28;20054;-77
2023/04/17 05:33:42;;;;;;;22.20;15.35;;;;;;;7.88;100.00;102781.63;4961730;28;20426;-77
2023/04/17 05:36:10;;;;;;;17.73;14.30;;;;;;;7.92;100.00;102778.31;4974362;28;20057;-77
2023/04/17 05:38:39;;;;;;;18.60;14.40;;;;;;;7.93;100.00;102780.13;4963886;28;20081;-77
2023/04/17 05:41:09;;;;;;;18.98;14.27;;;;;;;7.96;100.00;102785.53;4955712;28;20065;-77
2023/04/17 05:43:37;;;;;;;22.38;16.08;;;;;;;8.01;100.00;102773.47;4973838;28;20509;-78
2023/04/17 05:46:05;;;;;;;18.23;14.43;;;;;;;8.06;100.00;102773.69;4968345;28;20055;-77
2023/04/17 05:48:34;;;;;;;23.08;14.73;;;;;;;8.08;100.00;102775.53;4912092;28;20510;-77
2023/04/17 05:51:03;;;;;;;21.98;15.07;;;;;;;8.14;100.00;102780.16;4991157;28;20070;-77
2023/04/17 05:53:32;;;;;;;17.98;14.18;;;;;;;8.18;100.00;102777.75;4957989;28;20524;-77
2023/04/17 05:56:02;;;;;;;20.98;15.13;;;;;;;8.22;100.00;102775.25;4970587;28;20062;-77
2023/04/17 05:58:34;;;;;;;19.80;13.88;;;;;;;8.24;100.00;102782.38;4956933;28;20050;-78
2023/04/17 06:01:05;;;;;;;19.23;14.80;;;;;;;8.27;100.00;102784.25;4963641;28;20422;-77
2023/04/17 06:03:33;;;;;;;20.80;15.38;;;;;;;8.31;100.00;102792.31;4955380;28;20038;-77
2023/04/17 06:06:15;;;;;;;21.75;15.55;;;;;;;8.35;100.00;102786.34;4979963;28;20964;-77
2023/04/17 06:08:43;;;;;;;15.85;13.90;;;;;;;8.38;100.00;102793.47;4981824;28;20046;-77
2023/04/17 06:11:10;;;;;;;19.13;15.18;;;;;;;8.42;100.00;102794.56;4958778;28;20135;-76
2023/04/17 06:13:38;;;;;;;17.50;14.63;;;;;;;8.46;100.00;102793.84;4945092;28;20039;-77
2023/04/17 06:16:05;;;;;;;22.63;15.55;;;;;;;8.49;100.00;102794.88;4962390;28;20070;-77
2023/04/17 06:18:32;;;;;;;22.55;16.40;;;;;;;8.55;100.00;102797.75;4936572;28;20046;-77
2023/04/17 06:21:00;;;;;;;23.10;15.98;;;;;;;8.63;100.00;102811.22;4976004;28;20062;-76
2023/04/17 06:23:27;;;;;;;20.63;14.00;;;;;;;8.69;100.00;102802.69;4983512;28;20054;-77
2023/04/17 06:25:55;;;;;;;26.25;14.40;;;;;;;8.75;100.00;102813.47;4981461;28;20042;-75
2023/04/17 06:28:22;;;;;;;20.63;12.95;;;;;;;8.78;100.00;102810.97;4968612;28;20843;-76
2023/04/17 06:30:52;;;;;;;13.98;12.13;;;;;;;8.80;100.00;102811.94;4983640;28;20073;-77
2023/04/17 06:33:20;;;;;;;17.85;12.73;;;;;;;8.86;100.00;102816.56;4938595;28;21975;-76
2023/04/17 06:35:50;;;;;;;15.68;12.57;;;;;;;8.92;100.00;102814.16;4983993;28;20066;-77
2023/04/17 06:38:34;;;;;;;16.17;12.45;;;;;;;9.00;100.00;102814.50;4984334;28;20050;-77
2023/04/17 06:41:02;;;;;;;11.85;10.50;;;;;;;9.05;100.00;102813.84;4973871;28;20457;-75
2023/04/17 06:43:29;;;;;;;17.80;11.95;;;;;;;9.10;100.00;102820.19;4967545;28;20708;-76
2023/04/17 06:46:00;;;;;;;;;;;;;;;9.13;100.00;102814.16;4983976;28;20076;-76
2023/04/17 06:48:32;;;;;;;16.95;11.10;;;;;;;9.17;100.00;102821.34;4977489;28;19926;-77
2023/04/17 06:51:00;;;;;;;14.30;10.98;;;;;;;9.21;100.00;102825.91;4938774;28;20050;-77
2023/04/17 06:53:27;;;;;;;13.35;10.93;;;;;;;9.25;100.00;102822.56;4982611;28;20054;-77
2023/04/17 06:55:54;;;;;;;16.05;11.13;;;;;;;9.29;100.00;102819.19;4980378;28;20051;-78
2023/04/17 06:58:22;;;;;;;15.43;10.32;;;;;;;9.35;100.00;102823.81;4988507;28;20061;-77
2023/04/17 07:00:49;;;;;;;17.58;9.35;;;;;;;9.43;100.00;102816.22;4960501;28;20053;-78
2023/04/17 07:03:16;;;;;;;15.05;9.30;;;;;;;9.51;100.00;102827.97;4983608;28;20050;-77
2023/04/17 07:05:44;;;;;;;13.95;9.65;;;;;;;9.55;100.00;102832.50;4923302;28;20498;-76
2023/04/17 07:08:11;;;;;;;14.00;9.93;;;;;;;9.63;100.00;102822.28;4988115;28;20058;-76
2023/04/17 07:10:38;;;;;;;16.13;9.50;;;;;;;9.75;100.00;102831.56;4958211;28;20046;-76
2023/04/17 07:13:05;;;;;;;15.77;10.13;;;;;;;9.85;100.00;102834.50;4987863;28;20054;-77
2023/04/17 07:15:33;;;;;;;13.50;9.90;;;;;;;9.94;100.00;102837.50;4943201;28;20046;-77
2023/04/17 07:18:00;;;;;;;12.45;9.13;;;;;;;10.01;100.00;102844.78;4954987;28;20080;-75
2023/04/17 07:20:27;;;;;;;13.40;9.95;;;;;;;10.11;100.00;102841.66;4983183;28;20528;-76
2023/04/17 07:22:55;;;;;;;16.33;10.30;;;;;;;10.19;100.00;102852.50;4924979;28;20511;-76
2023/04/17 07:25:23;;;;;;;10.63;8.88;;;;;;;10.23;100.00;102856.13;4977666;28;20043;-77
2023/04/17 07:27:50;;;;;;;11.90;9.20;;;;;;;10.26;100.00;102856.22;4999695;28;20054;-76
2023/04/17 07:30:17;;;;;;;12.35;9.35;;;;;;;10.27;100.00;102863.31;4963104;28;20054;-76
2023/04/17 07:32:45;;;;;;;12.73;10.10;;;;;;;10.37;100.00;102869.84;5000354;28;20053;-76
2023/04/17 07:35:12;;;;;;;11.80;9.07;;;;;;;10.47;100.00;102857.06;4998386;28;20587;-76
2023/04/17 07:37:40;;;;;;;15.38;9.30;;;;;;;10.53;100.00;102849.34;4931227;28;20421;-76
2023/04/17 07:40:09;;;;;;;13.70;8.95;;;;;;;10.57;100.00;102854.72;4987666;28;20061;-76
2023/04/17 07:42:36;;;;;;;11.82;8.90;;;;;;;10.62;100.00;102861.06;4999970;28;20065;-76
2023/04/17 07:45:05;;;;;;;13.68;8.27;;;;;;;10.66;100.00;102865.59;4970458;28;20054;-76
2023/04/17 07:47:32;;;;;;;13.45;8.60;;;;;;;10.70;100.00;102860.50;4970176;28;20049;-76
2023/04/17 07:50:00;;;;;;;10.88;8.57;;;;;;;10.79;100.00;102864.28;4974935;28;20531;-77
2023/04/17 07:52:28;;;;;;;12.10;8.00;;;;;;;10.81;100.00;102863.53;4959994;28;20440;-76
2023/04/17 07:54:55;;;;;;;12.48;8.60;;;;;;;10.83;100.00;102863.53;4940839;28;20061;-76
2023/04/17 07:57:25;;;;;;;14.15;9.00;;;;;;;10.80;100.00;102872.25;4983565;28;20048;-76
2023/04/17 07:59:52;;;;;;;11.23;8.73;;;;;;;10.80;100.00;102874.91;4977142;28;20054;-76
2023/04/17 08:02:20;;;;;;;10.82;8.73;;;;;;;10.84;100.00;102874.16;4967295;28;20112;-76
2023/04/17 08:04:51;;;;;;;14.13;8.88;;;;;;;10.86;100.00;102874.22;4982306;28;20054;-76
2023/04/17 08:07:19;;;;;;;14.35;10.13;;;;;;;10.87;100.00;102861.09;5001731;28;20049;-77
2023/04/17 08:09:46;;;;;;;11.55;8.85;;;;;;;10.87;100.00;102871.63;4943634;28;20045;-75
2023/04/17 08:12:13;;;;;;;16.42;9.35;;;;;;;10.93;100.00;102871.84;4999822;28;20061;-77
2023/04/17 08:14:42;;;;;;;14.60;10.05;;;;;;;10.97;100.00;102875.47;4969985;28;20038;-77
2023/04/17 08:17:09;;;;;;;15.27;10.15;;;;;;;11.04;100.00;102866.00;4960001;28;20058;-77
2023/04/17 08:19:37;;;;;;;14.93;9.95;;;;;;;11.10;100.00;102877.69;5002758;28;20053;-77
2023/04/17 08:22:05;;;;;;;13.35;9.73;;;;;;;11.16;100.00;102878.75;4980044;28;20046;-77
2023/04/17 08:24:33;;;;;;;16.55;11.10;;;;;;;11.22;100.00;102877.19;4959210;28;20050;-77
2023/04/17 08:27:00;;;;;;;16.33;12.00;;;;;;;11.28;100.00;102880.00;4982041;28;20061;-77
2023/04/17 08:29:27;;;;;;;18.02;9.95;;;;;;;11.36;100.00;102879.38;4990312;28;20046;-77
2023/04/17 08:31:55;;;;;;;13.13;9.80;;;;;;;11.45;100.00;102884.94;4953673;28;20114;-76
2023/04/17 08:34:41;;;;;;;15.07;10.40;;;;;;;11.54;100.00;102890.53;5000724;28;20045;-77
2023/04/17 08:37:08;;;;;;;15.23;9.73;;;;;;;11.60;100.00;102893.34;5004859;28;20416;-77
2023/04/17 08:39:35;;;;;;;16.95;10.23;;;;;;;11.73;100.00;102894.66;4970846;28;20054;-77
2023/04/17 08:42:07;;;;;;;12.10;8.73;;;;;;;11.79;100.00;102892.19;4960772;28;20045;-76
2023/04/17 08:44:38;;;;;;;9.98;8.73;;;;;;;11.83;100.00;102891.47;4981412;28;20050;-76
2023/04/17 08:47:07;;;;;;;12.18;9.18;;;;;;;11.92;100.00;102893.50;4991367;28;20045;-76
2023/04/17 08:49:35;;;;;;;15.83;9.90;;;;;;;12.08;100.00;102886.94;4979952;28;20509;-77
2023/04/17 08:52:04;;;;;;;11.75;9.13;;;;;;;12.21;100.00;102885.53;5002450;28;20073;-76
2023/04/17 08:54:32;;;;;;;12.15;9.60;;;;;;;12.26;100.00;102892.75;5003953;28;20042;-76
2023/04/17 08:57:03;;;;;;;15.55;9.57;;;;;;;12.29;100.00;102889.31;4957707;28;20045;-76
2023/04/17 08:59:31;;;;;;;10.55;9.30;;;;;;;12.35;100.00;102892.13;4987917;28;20061;-76
2023/04/17 09:02:06;;;;;;;18.30;10.10;;;;;;;12.42;100.00;102898.47;4975637;28;20045;-76
2023/04/17 09:04:44;;;;;;;12.77;10.05;;;;;;;12.44;100.00;102895.03;4991586;28;20042;-76
2023/04/17 09:07:14;;;;;;;13.30;9.93;;;;;;;12.47;100.00;102897.75;4993834;28;20402;-76
2023/04/17 09:09:48;;;;;;;12.05;8.98;;;;;;;12.45;100.00;102890.63;4982284;28;20495;-77
2023/04/17 09:12:17;;;;;;;15.85;10.30;;;;;;;12.46;100.00;102895.97;4925635;28;20050;-76
2023/04/17 09:14:44;;;;;;;14.27;8.30;;;;;;;12.44;100.00;102897.66;4992069;28;20046;-76
2023/04/17 09:17:16;;;;;;;17.88;8.88;;;;;;;12.42;100.00;102903.75;4974439;28;20058;-76
2023/04/17 09:20:10;;;;;;;14.95;9.00;;;;;;;12.40;100.00;102908.09;4954081;28;20046;-77
2023/04/17 09:22:39;;;;;;;16.00;9.50;;;;;;;12.32;100.00;102902.59;5003241;28;20125;-76
2023/04/17 09:25:21;;;;;;;12.63;8.20;;;;;;;12.28;100.00;102898.97;4969953;28;20055;-76
2023/04/17 09:27:49;;;;;;;10.05;8.60;;;;;;;12.22;100.00;102905.84;4962192;28;20045;-76
2023/04/17 09:30:16;;;;;;;13.48;9.35;;;;;;;12.16;100.00;102905.66;5005476;28;20049;-76
2023/04/17 09:32:43;;;;;;;12.02;8.75;;;;;;;12.04;100.00;102916.75;4975053;28;20057;-76
2023/04/17 09:35:22;;;;;;;11.32;8.93;;;;;;;11.90;100.00;102901.38;4965927;28;20050;-76
2023/04/17 09:37:52;;;;;;;14.55;10.13;;;;;;;11.87;100.00;102902.97;5006368;28;20050;-76
2023/04/17 09:40:21;;;;;;;9.88;8.77;;;;;;;11.96;100.00;102899.78;4986454;28;20420;-76
2023/04/17 09:42:52;;;;;;;10.65;8.45;;;;;;;12.09;100.00;102902.81;4962920;28;20042;-76
2023/04/17 09:45:21;;;;;;;13.75;10.38;;;;;;;12.12;100.00;102909.03;5003685;28;20050;-76
2023/04/17 09:47:49;;;;;;;9.95;8.13;;;;;;;12.14;100.00;102910.00;4986755;28;20058;-76
2023/04/17 09:50:20;;;;;;;14.93;9.82;;;;;;;12.13;100.00;102914.38;4975013;28;20056;-76
2023/04/17 09:52:52;;;;;;;15.35;9.50;;;;;;;12.14;100.00;102912.66;5006011;28;20061;-76
2023/04/17 09:55:22;;;;;;;12.85;9.45;;;;;;;12.13;100.00;102919.66;4983478;28;20422;-77
2023/04/17 09:57:53;;;;;;;16.45;9.40;;;;;;;12.13;100.00;102916.13;4958311;28;20053;-77
2023/04/17 10:00:22;;;;;;;10.60;9.10;;;;;;;12.08;100.00;102911.63;5004612;28;20046;-77
2023/04/17 10:02:53;;;;;;;14.40;9.82;;;;;;;12.06;100.00;102915.03;5006142;28;20493;-77
2023/04/17 10:05:27;;;;;;;14.93;9.57;;;;;;;12.03;100.00;102913.22;4973644;28;20030;-77
2023/04/17 10:07:55;;;;;;;16.45;10.23;;;;;;;12.05;100.00;102919.44;5006129;28;20046;-77
2023/04/17 10:10:25;;;;;;;16.17;9.73;;;;;;;12.06;100.00;102915.97;4985209;28;20425;-77
2023/04/17 10:12:55;;;;;;;15.32;11.30;;;;;;;12.07;100.00;102907.16;5006385;28;20045;-76
2023/04/17 10:15:23;;;;;;;17.35;11.65;;;;;;;12.04;100.00;102909.72;4960684;28;20050;-76
2023/04/17 10:17:51;;;;;;;13.57;11.27;;;;;;;12.00;100.00;102906.94;4988024;28;20062;-77
2023/04/17 10:20:31;;;;;;;15.68;11.85;;;;;;;12.00;100.00;102906.94;4978855;28;20054;-76
2023/04/17 10:23:00;;;;;;;13.57;10.55;;;;;;;12.04;100.00;102909.72;5004964;28;20045;-77
2023/04/17 10:25:27;;;;;;;15.38;11.23;;;;;;;12.07;100.00;102904.53;4985462;28;20749;-78
2023/04/17 10:27:59;;;;;;;16.08;11.70;;;;;;;12.12;100.00;102901.13;4983980;28;20410;-76
2023/04/17 10:30:50;;;;;;;14.60;11.10;;;;;;;12.19;100.00;102903.09;4923356;28;20057;-77
2023/04/17 10:33:23;;;;;;;18.48;11.77;;;;;;;12.28;100.00;102900.72;5004088;28;20520;-77
2023/04/17 10:35:51;;;;;;;13.32;10.73;;;;;;;12.35;100.00;102905.34;4975583;28;20042;-77
2023/04/17 10:38:31;;;;;;;16.85;11.48;;;;;;;12.41;100.00;102894.03;4997906;28;20512;-77
2023/04/17 10:41:02;;;;;;;12.73;10.98;;;;;;;12.45;100.00;102898.56;4984232;28;20058;-77
2023/04/17 10:43:29;;;;;;;16.10;12.30;;;;;;;12.56;100.00;102893.59;4917901;28;20065;-75
2023/04/17 10:46:02;;;;;;;15.73;11.38;;;;;;;12.62;100.00;102891.97;5005377;28;20050;-76
2023/04/17 10:48:49;;;;;;;16.85;12.32;;;;;;;12.69;100.00;102890.41;4984628;28;20060;-76
2023/04/17 10:53:54;;;;;;;15.43;12.32;;;;;;;12.71;100.00;102901.03;4986877;28;20057;-76
2023/04/17 10:56:36;;;;;;;18.20;11.90;;;;;;;12.72;100.00;102889.59;4970966;28;20052;-77
2023/04/17 10:59:09;;;;;;;20.27;13.23;;;;;;;12.68;100.00;102891.25;4965001;28;20420;-78
2023/04/17 11:01:46;;;;;;;16.15;12.70;;;;;;;12.74;100.00;102893.16;4960387;28;20747;-77
2023/04/17 11:04:22;;;;;;;17.98;11.68;;;;;;;12.86;100.00;102893.50;4984766;28;20076;-77
2023/04/17 11:06:54;;;;;;;15.35;11.85;;;;;;;12.95;100.00;102895.47;4979675;28;20073;-77
2023/04/17 11:09:27;;;;;;;16.98;12.60;;;;;;;13.04;100.00;102890.44;4980957;28;20058;-77
2023/04/17 11:11:58;;;;;;;17.80;13.68;;;;;;;13.00;100.00;102905.34;4983576;28;20046;-76
2023/04/17 11:14:26;;;;;;;18.52;13.63;;;;;;;13.00;100.00;102893.88;4949496;28;20042;-77
2023/04/17 11:16:54;;;;;;;18.00;14.57;;;;;;;13.01;100.00;102895.66;4978957;28;20053;-77
2023/04/17 11:19:23;;;;;;;18.05;13.23;;;;;;;12.97;100.00;102893.81;4997297;28;20046;-79
2023/04/17 11:21:53;;;;;;;18.52;13.80;;;;;;;12.92;100.00;102892.78;4998634;28;20493;-77